sensor_id;sensor_type;location;lat;lon;timestamp;pressure;altitude;pressure_sealevel;temperature;humidity
11912;BME280;6016;41.928;25.556;2023-05-15T00:02:20;99286.75;;;15.00;85.17
11912;BME280;6016;41.928;25.556;2023-05-15T00:04:47;98822.78;;;12.01;84.77
11912;BME280;6016;41.928;25.556;2023-05-15T00:07:14;99188.34;;;14.34;85.29
11912;BME280;6016;41.928;25.556;2023-05-15T00:09:42;99230.41;;;14.63;85.33
11912;BME280;6016;41.928;25.556;2023-05-15T00:12:10;99137.03;;;14.00;85.27
11912;BME280;6016;41.928;25.556;2023-05-15T00:14:37;99257.13;;;14.70;84.98
11912;BME280;6016;41.928;25.556;2023-05-15T00:17:04;99251.66;;;14.72;85.46
11912;BME280;6016;41.928;25.556;2023-05-15T00:19:32;99293.91;;;15.00;85.49
11912;BME280;6016;41.928;25.556;2023-05-15T00:21:58;99276.59;;;14.96;85.08
11912;BME280;6016;41.928;25.556;2023-05-15T00:24:25;99115.44;;;13.95;84.67
11912;BME280;6016;41.928;25.556;2023-05-15T00:26:52;99275.94;;;14.94;85.05
11912;BME280;6016;41.928;25.556;2023-05-15T00:29:20;99098.03;;;13.84;84.97
11912;BME280;6016;41.928;25.556;2023-05-15T00:31:48;99129.00;;;13.75;84.83
11912;BME280;6016;41.928;25.556;2023-05-15T00:34:15;99252.88;;;14.86;84.97
11912;BME280;6016;41.928;25.556;2023-05-15T00:36:42;99254.53;;;14.87;85.35
11912;BME280;6016;41.928;25.556;2023-05-15T00:39:09;99179.56;;;14.42;85.39
11912;BME280;6016;41.928;25.556;2023-05-15T00:41:36;99146.53;;;14.19;84.91
11912;BME280;6016;41.928;25.556;2023-05-15T00:44:04;99211.28;;;14.43;85.26
11912;BME280;6016;41.928;25.556;2023-05-15T00:46:34;99244.66;;;14.62;85.01
11912;BME280;6016;41.928;25.556;2023-05-15T00:49:02;99239.84;;;14.66;85.40
11912;BME280;6016;41.928;25.556;2023-05-15T00:51:30;99240.34;;;14.70;85.30
11912;BME280;6016;41.928;25.556;2023-05-15T00:53:57;99219.25;;;14.52;85.20
11912;BME280;6016;41.928;25.556;2023-05-15T00:56:24;99205.44;;;14.40;84.51
11912;BME280;6016;41.928;25.556;2023-05-15T00:58:52;99251.44;;;14.65;84.67
11912;BME280;6016;41.928;25.556;2023-05-15T01:01:20;99251.31;;;14.67;85.09
11912;BME280;6016;41.928;25.556;2023-05-15T01:03:51;99250.47;;;14.66;84.61
11912;BME280;6016;41.928;25.556;2023-05-15T01:06:18;99030.56;;;13.27;84.60
11912;BME280;6016;41.928;25.556;2023-05-15T01:08:45;99258.09;;;14.61;84.54
11912;BME280;6016;41.928;25.556;2023-05-15T01:11:14;99175.16;;;14.07;84.52
11912;BME280;6016;41.928;25.556;2023-05-15T01:13:42;99237.00;;;14.51;85.06
11912;BME280;6016;41.928;25.556;2023-05-15T01:16:09;99121.19;;;13.74;85.15
11912;BME280;6016;41.928;25.556;2023-05-15T01:18:36;98882.84;;;12.35;84.83
11912;BME280;6016;41.928;25.556;2023-05-15T01:24:15;99058.66;;;13.55;84.54
11912;BME280;6016;41.928;25.556;2023-05-15T01:29:50;99145.50;;;14.12;85.13
11912;BME280;6016;41.928;25.556;2023-05-15T01:32:36;99218.44;;;14.59;84.55
11912;BME280;6016;41.928;25.556;2023-05-15T01:35:10;99198.88;;;14.60;84.74
11912;BME280;6016;41.928;25.556;2023-05-15T01:37:45;99184.84;;;14.33;84.69
11912;BME280;6016;41.928;25.556;2023-05-15T01:40:15;99193.56;;;14.60;84.45
11912;BME280;6016;41.928;25.556;2023-05-15T01:42:48;99201.69;;;14.59;83.94
11912;BME280;6016;41.928;25.556;2023-05-15T01:45:20;99187.06;;;14.63;83.49
11912;BME280;6016;41.928;25.556;2023-05-15T01:47:49;99043.31;;;13.75;83.56
11912;BME280;6016;41.928;25.556;2023-05-15T01:50:18;98856.00;;;12.56;83.47
11912;BME280;6016;41.928;25.556;2023-05-15T01:52:49;99154.50;;;14.19;83.71
11912;BME280;6016;41.928;25.556;2023-05-15T01:55:17;98422.56;;;9.78;82.97
11912;BME280;6016;41.928;25.556;2023-05-15T01:57:46;99134.25;;;14.10;83.82
11912;BME280;6016;41.928;25.556;2023-05-15T02:00:14;99108.00;;;13.90;83.26
11912;BME280;6016;41.928;25.556;2023-05-15T02:02:43;99200.84;;;14.50;83.40
11912;BME280;6016;41.928;25.556;2023-05-15T02:05:11;99206.41;;;14.30;83.33
11912;BME280;6016;41.928;25.556;2023-05-15T02:07:41;99200.34;;;14.46;83.46
11912;BME280;6016;41.928;25.556;2023-05-15T02:10:10;99067.00;;;13.68;83.16
11912;BME280;6016;41.928;25.556;2023-05-15T02:12:38;99175.75;;;14.36;83.88
11912;BME280;6016;41.928;25.556;2023-05-15T02:15:07;99152.88;;;14.52;83.23
11912;BME280;6016;41.928;25.556;2023-05-15T02:17:34;99153.88;;;14.51;83.02
11912;BME280;6016;41.928;25.556;2023-05-15T02:20:03;99170.97;;;14.48;83.08
11912;BME280;6016;41.928;25.556;2023-05-15T02:22:32;99174.97;;;14.52;82.94
11912;BME280;6016;41.928;25.556;2023-05-15T02:24:58;99175.97;;;14.51;82.60
11912;BME280;6016;41.928;25.556;2023-05-15T02:27:27;99165.81;;;14.46;83.02
11912;BME280;6016;41.928;25.556;2023-05-15T02:30:02;99167.47;;;14.47;82.97
11912;BME280;6016;41.928;25.556;2023-05-15T02:32:38;98931.78;;;13.00;82.85
11912;BME280;6016;41.928;25.556;2023-05-15T02:35:16;99153.22;;;14.48;83.11
11912;BME280;6016;41.928;25.556;2023-05-15T02:37:47;99147.41;;;14.45;83.04
11912;BME280;6016;41.928;25.556;2023-05-15T02:40:15;99157.19;;;14.44;82.90
11912;BME280;6016;41.928;25.556;2023-05-15T02:42:43;99164.31;;;14.44;82.87
11912;BME280;6016;41.928;25.556;2023-05-15T02:45:12;99157.19;;;14.44;82.60
11912;BME280;6016;41.928;25.556;2023-05-15T02:47:39;99156.88;;;14.47;82.66
11912;BME280;6016;41.928;25.556;2023-05-15T02:50:09;99021.41;;;13.56;82.76
11912;BME280;6016;41.928;25.556;2023-05-15T02:52:37;99148.91;;;14.47;82.35
11912;BME280;6016;41.928;25.556;2023-05-15T02:55:04;99146.25;;;14.47;82.37
11912;BME280;6016;41.928;25.556;2023-05-15T02:57:31;99149.75;;;14.48;82.70
11912;BME280;6016;41.928;25.556;2023-05-15T02:59:59;99165.69;;;14.48;83.11
11912;BME280;6016;41.928;25.556;2023-05-15T03:02:26;99146.09;;;14.49;82.49
11912;BME280;6016;41.928;25.556;2023-05-15T03:04:53;99145.41;;;14.47;82.55
11912;BME280;6016;41.928;25.556;2023-05-15T03:07:19;99093.69;;;13.67;82.45
11912;BME280;6016;41.928;25.556;2023-05-15T03:09:48;99165.81;;;14.46;82.84
11912;BME280;6016;41.928;25.556;2023-05-15T03:12:14;99156.72;;;14.49;83.18
11912;BME280;6016;41.928;25.556;2023-05-15T03:14:41;99155.72;;;14.50;83.00
11912;BME280;6016;41.928;25.556;2023-05-15T03:17:08;99119.81;;;14.13;82.72
11912;BME280;6016;41.928;25.556;2023-05-15T03:19:35;99164.00;;;14.55;82.76
11912;BME280;6016;41.928;25.556;2023-05-15T03:22:02;99148.84;;;14.23;83.05
11912;BME280;6016;41.928;25.556;2023-05-15T03:24:28;99159.53;;;14.56;82.41
11912;BME280;6016;41.928;25.556;2023-05-15T03:26:57;99170.16;;;14.56;82.78
11912;BME280;6016;41.928;25.556;2023-05-15T03:29:23;99173.97;;;14.53;82.95
11912;BME280;6016;41.928;25.556;2023-05-15T03:31:50;99167.00;;;14.52;82.80
11912;BME280;6016;41.928;25.556;2023-05-15T03:34:17;99155.84;;;14.32;83.04
11912;BME280;6016;41.928;25.556;2023-05-15T03:36:44;99155.06;;;14.48;82.75
11912;BME280;6016;41.928;25.556;2023-05-15T03:39:11;99061.88;;;13.75;82.88
11912;BME280;6016;41.928;25.556;2023-05-15T03:41:37;99167.47;;;14.31;82.73
11912;BME280;6016;41.928;25.556;2023-05-15T03:44:06;98976.69;;;13.18;82.37
11912;BME280;6016;41.928;25.556;2023-05-15T03:46:32;99171.66;;;14.50;82.64
11912;BME280;6016;41.928;25.556;2023-05-15T03:48:59;99049.97;;;13.79;82.57
11912;BME280;6016;41.928;25.556;2023-05-15T03:51:26;99150.06;;;14.53;83.11
11912;BME280;6016;41.928;25.556;2023-05-15T03:53:53;99150.06;;;14.53;82.86
11912;BME280;6016;41.928;25.556;2023-05-15T03:56:20;99154.53;;;14.53;82.55
11912;BME280;6016;41.928;25.556;2023-05-15T03:58:47;99136.59;;;14.38;82.48
11912;BME280;6016;41.928;25.556;2023-05-15T04:01:15;99030.53;;;13.70;82.52
11912;BME280;6016;41.928;25.556;2023-05-15T04:03:42;99152.88;;;14.43;82.87
11912;BME280;6016;41.928;25.556;2023-05-15T04:06:09;99163.03;;;14.48;83.29
11912;BME280;6016;41.928;25.556;2023-05-15T04:08:36;99167.66;;;14.54;83.59
11912;BME280;6016;41.928;25.556;2023-05-15T04:11:03;99007.59;;;13.44;82.82
11912;BME280;6016;41.928;25.556;2023-05-15T04:13:30;99184.09;;;14.58;83.55
11912;BME280;6016;41.928;25.556;2023-05-15T04:15:57;99144.59;;;14.46;82.88
11912;BME280;6016;41.928;25.556;2023-05-15T04:18:25;99162.00;;;14.57;83.38
11912;BME280;6016;41.928;25.556;2023-05-15T04:20:52;99160.88;;;14.60;83.10
11912;BME280;6016;41.928;25.556;2023-05-15T04:23:19;99150.09;;;14.61;83.45
11912;BME280;6016;41.928;25.556;2023-05-15T04:25:46;99104.09;;;14.28;83.52
11912;BME280;6016;41.928;25.556;2023-05-15T04:28:13;98886.56;;;12.85;83.57
11912;BME280;6016;41.928;25.556;2023-05-15T04:30:40;99164.88;;;14.72;84.10
11912;BME280;6016;41.928;25.556;2023-05-15T04:33:07;99119.03;;;14.37;84.46
11912;BME280;6016;41.928;25.556;2023-05-15T04:35:35;99166.22;;;14.76;84.55
11912;BME280;6016;41.928;25.556;2023-05-15T04:38:02;99141.44;;;14.51;85.07
11912;BME280;6016;41.928;25.556;2023-05-15T04:40:28;99153.94;;;14.84;85.20
11912;BME280;6016;41.928;25.556;2023-05-15T04:42:56;99153.59;;;14.87;84.48
11912;BME280;6016;41.928;25.556;2023-05-15T04:45:22;99156.59;;;14.92;84.65
11912;BME280;6016;41.928;25.556;2023-05-15T04:47:50;99071.25;;;14.37;84.81
11912;BME280;6016;41.928;25.556;2023-05-15T04:50:16;99054.84;;;14.25;84.65
11912;BME280;6016;41.928;25.556;2023-05-15T04:52:45;99150.13;;;15.03;84.66
11912;BME280;6016;41.928;25.556;2023-05-15T04:55:12;99105.91;;;14.27;84.58
11912;BME280;6016;41.928;25.556;2023-05-15T04:57:38;99154.59;;;15.11;84.08
11912;BME280;6016;41.928;25.556;2023-05-15T05:00:06;98792.81;;;12.53;83.26
11912;BME280;6016;41.928;25.556;2023-05-15T05:02:36;99182.16;;;15.10;83.01
11912;BME280;6016;41.928;25.556;2023-05-15T05:05:04;99162.09;;;14.74;82.95
11912;BME280;6016;41.928;25.556;2023-05-15T05:07:31;99089.34;;;14.58;83.02
11912;BME280;6016;41.928;25.556;2023-05-15T05:10:00;99102.00;;;14.73;82.33
11912;BME280;6016;41.928;25.556;2023-05-15T05:12:26;99201.06;;;15.31;82.66
11912;BME280;6016;41.928;25.556;2023-05-15T05:14:53;99170.19;;;15.14;82.61
11912;BME280;6016;41.928;25.556;2023-05-15T05:17:21;99198.56;;;15.30;82.04
11912;BME280;6016;41.928;25.556;2023-05-15T05:19:47;99208.38;;;15.21;82.20
11912;BME280;6016;41.928;25.556;2023-05-15T05:22:14;99188.28;;;15.27;82.76
11912;BME280;6016;41.928;25.556;2023-05-15T05:24:41;99184.13;;;15.32;82.99
11912;BME280;6016;41.928;25.556;2023-05-15T05:27:09;99198.72;;;15.37;82.39
11912;BME280;6016;41.928;25.556;2023-05-15T05:29:36;99198.56;;;15.38;82.02
11912;BME280;6016;41.928;25.556;2023-05-15T05:32:05;99106.66;;;14.87;82.36
11912;BME280;6016;41.928;25.556;2023-05-15T05:34:33;99117.09;;;14.72;82.10
11912;BME280;6016;41.928;25.556;2023-05-15T05:37:00;99197.91;;;15.36;82.23
11912;BME280;6016;41.928;25.556;2023-05-15T05:39:27;99186.09;;;15.39;82.57
11912;BME280;6016;41.928;25.556;2023-05-15T05:41:54;99176.81;;;15.43;82.78
11912;BME280;6016;41.928;25.556;2023-05-15T05:44:22;99130.03;;;15.09;83.65
11912;BME280;6016;41.928;25.556;2023-05-15T05:46:49;99096.66;;;14.98;82.99
11912;BME280;6016;41.928;25.556;2023-05-15T05:49:15;99170.94;;;15.56;83.32
11912;BME280;6016;41.928;25.556;2023-05-15T05:51:44;99102.09;;;15.13;83.19
11912;BME280;6016;41.928;25.556;2023-05-15T05:54:11;99175.25;;;15.65;82.21
11912;BME280;6016;41.928;25.556;2023-05-15T05:56:39;99096.28;;;15.26;82.52
11912;BME280;6016;41.928;25.556;2023-05-15T05:59:06;99169.22;;;15.80;82.20
11912;BME280;6016;41.928;25.556;2023-05-15T06:01:34;99149.63;;;15.72;81.80
11912;BME280;6016;41.928;25.556;2023-05-15T06:04:01;99116.28;;;15.53;80.82
11912;BME280;6016;41.928;25.556;2023-05-15T06:06:28;99097.09;;;15.26;80.84
11912;BME280;6016;41.928;25.556;2023-05-15T06:08:55;99174.50;;;15.96;80.25
11912;BME280;6016;41.928;25.556;2023-05-15T06:11:22;99070.66;;;15.33;79.59
11912;BME280;6016;41.928;25.556;2023-05-15T06:13:48;99185.09;;;16.13;80.67
11912;BME280;6016;41.928;25.556;2023-05-15T06:16:15;99176.53;;;16.17;80.25
11912;BME280;6016;41.928;25.556;2023-05-15T06:18:44;99169.91;;;16.22;80.50
11912;BME280;6016;41.928;25.556;2023-05-15T06:21:10;99170.72;;;16.22;80.22
11912;BME280;6016;41.928;25.556;2023-05-15T06:23:37;99176.25;;;16.12;80.42
11912;BME280;6016;41.928;25.556;2023-05-15T06:26:04;99189.69;;;16.19;80.40
11912;BME280;6016;41.928;25.556;2023-05-15T06:28:31;99190.91;;;16.08;80.21
11912;BME280;6016;41.928;25.556;2023-05-15T06:30:58;99087.88;;;14.89;79.93
11912;BME280;6016;41.928;25.556;2023-05-15T06:33:24;99208.91;;;16.06;79.23
11912;BME280;6016;41.928;25.556;2023-05-15T06:35:53;99196.72;;;16.12;79.81
11912;BME280;6016;41.928;25.556;2023-05-15T06:38:19;99072.00;;;15.37;79.71
11912;BME280;6016;41.928;25.556;2023-05-15T06:40:46;99192.31;;;16.27;79.83
11912;BME280;6016;41.928;25.556;2023-05-15T06:43:13;99229.00;;;16.40;79.36
11912;BME280;6016;41.928;25.556;2023-05-15T06:45:40;99141.44;;;15.91;79.32
11912;BME280;6016;41.928;25.556;2023-05-15T06:48:07;99044.69;;;15.52;78.42
11912;BME280;6016;41.928;25.556;2023-05-15T06:50:34;98642.69;;;13.05;77.68
11912;BME280;6016;41.928;25.556;2023-05-15T06:53:02;99180.53;;;16.53;78.94
11912;BME280;6016;41.928;25.556;2023-05-15T06:55:29;99176.84;;;16.54;78.52
11912;BME280;6016;41.928;25.556;2023-05-15T06:57:55;99169.50;;;16.56;79.62
11912;BME280;6016;41.928;25.556;2023-05-15T07:00:22;99162.00;;;16.60;79.15
11912;BME280;6016;41.928;25.556;2023-05-15T07:02:49;99171.81;;;16.59;78.45
11912;BME280;6016;41.928;25.556;2023-05-15T07:05:16;99101.63;;;16.06;77.14
11912;BME280;6016;41.928;25.556;2023-05-15T07:07:43;99171.16;;;16.57;77.98
11912;BME280;6016;41.928;25.556;2023-05-15T07:10:11;99154.59;;;16.47;78.83
11912;BME280;6016;41.928;25.556;2023-05-15T07:12:38;99170.28;;;16.65;78.44
11912;BME280;6016;41.928;25.556;2023-05-15T07:15:06;99099.47;;;16.01;78.42
11912;BME280;6016;41.928;25.556;2023-05-15T07:17:33;99154.94;;;16.44;78.15
11912;BME280;6016;41.928;25.556;2023-05-15T07:19:59;99176.59;;;16.64;78.48
11912;BME280;6016;41.928;25.556;2023-05-15T07:22:26;99112.47;;;16.27;79.12
11912;BME280;6016;41.928;25.556;2023-05-15T07:24:53;99128.91;;;16.54;77.93
11912;BME280;6016;41.928;25.556;2023-05-15T07:27:21;99173.72;;;16.97;77.08
11912;BME280;6016;41.928;25.556;2023-05-15T07:29:48;99073.38;;;16.51;78.07
11912;BME280;6016;41.928;25.556;2023-05-15T07:32:15;99072.75;;;16.64;77.78
11912;BME280;6016;41.928;25.556;2023-05-15T07:34:42;99120.94;;;16.93;76.86
11912;BME280;6016;41.928;25.556;2023-05-15T07:37:09;99154.50;;;17.40;76.06
11912;BME280;6016;41.928;25.556;2023-05-15T07:39:36;98915.16;;;15.92;75.11
11912;BME280;6016;41.928;25.556;2023-05-15T07:42:03;99144.28;;;17.29;74.72
11912;BME280;6016;41.928;25.556;2023-05-15T07:44:31;99152.84;;;17.54;75.90
11912;BME280;6016;41.928;25.556;2023-05-15T07:46:58;99136.09;;;17.46;76.17
11912;BME280;6016;41.928;25.556;2023-05-15T07:49:25;99142.34;;;17.68;75.21
11912;BME280;6016;41.928;25.556;2023-05-15T07:51:51;98811.03;;;15.57;75.04
11912;BME280;6016;41.928;25.556;2023-05-15T07:54:18;99155.78;;;17.75;74.04
11912;BME280;6016;41.928;25.556;2023-05-15T07:56:45;99152.22;;;17.67;72.95
11912;BME280;6016;41.928;25.556;2023-05-15T07:59:12;99096.56;;;17.34;73.53
11912;BME280;6016;41.928;25.556;2023-05-15T08:01:40;99132.22;;;17.63;74.43
11912;BME280;6016;41.928;25.556;2023-05-15T08:04:07;99095.09;;;17.47;74.31
11912;BME280;6016;41.928;25.556;2023-05-15T08:06:34;99149.63;;;17.89;74.40
11912;BME280;6016;41.928;25.556;2023-05-15T08:09:02;99055.84;;;17.10;74.52
11912;BME280;6016;41.928;25.556;2023-05-15T08:11:29;99119.00;;;17.70;75.08
11912;BME280;6016;41.928;25.556;2023-05-15T08:13:56;99165.50;;;17.97;74.53
11912;BME280;6016;41.928;25.556;2023-05-15T08:16:23;99061.34;;;17.39;75.55
11912;BME280;6016;41.928;25.556;2023-05-15T08:18:51;99151.16;;;17.98;75.06
11912;BME280;6016;41.928;25.556;2023-05-15T08:21:22;99125.31;;;17.84;74.42
11912;BME280;6016;41.928;25.556;2023-05-15T08:23:49;98973.34;;;17.02;74.02
11912;BME280;6016;41.928;25.556;2023-05-15T08:26:16;99074.00;;;17.67;73.15
11912;BME280;6016;41.928;25.556;2023-05-15T08:28:43;99141.66;;;18.26;74.03
11912;BME280;6016;41.928;25.556;2023-05-15T08:31:09;99024.34;;;17.66;72.47
11912;BME280;6016;41.928;25.556;2023-05-15T08:33:36;99065.72;;;17.77;71.84
11912;BME280;6016;41.928;25.556;2023-05-15T08:36:08;99059.53;;;17.91;71.86
11912;BME280;6016;41.928;25.556;2023-05-15T08:38:35;99144.44;;;18.39;71.98
11912;BME280;6016;41.928;25.556;2023-05-15T08:41:06;99132.78;;;18.25;71.74
11912;BME280;6016;41.928;25.556;2023-05-15T08:43:36;99162.63;;;18.29;72.53
11912;BME280;6016;41.928;25.556;2023-05-15T08:46:05;99128.28;;;18.26;72.22
11912;BME280;6016;41.928;25.556;2023-05-15T08:48:35;99194.13;;;18.19;72.53
11912;BME280;6016;41.928;25.556;2023-05-15T08:51:02;98971.16;;;17.42;72.13
11912;BME280;6016;41.928;25.556;2023-05-15T08:53:31;99082.88;;;18.04;71.86
11912;BME280;6016;41.928;25.556;2023-05-15T08:55:58;99078.25;;;18.13;70.96
11912;BME280;6016;41.928;25.556;2023-05-15T08:58:25;99145.44;;;18.53;71.66
11912;BME280;6016;41.928;25.556;2023-05-15T09:00:53;99108.19;;;18.30;71.47
11912;BME280;6016;41.928;25.556;2023-05-15T09:03:20;99142.25;;;18.65;71.71
11912;BME280;6016;41.928;25.556;2023-05-15T09:05:48;99133.69;;;18.76;71.48
11912;BME280;6016;41.928;25.556;2023-05-15T09:08:18;99128.41;;;18.83;70.37
11912;BME280;6016;41.928;25.556;2023-05-15T09:10:48;98932.56;;;17.60;70.92
11912;BME280;6016;41.928;25.556;2023-05-15T09:13:17;98981.09;;;17.70;71.40
11912;BME280;6016;41.928;25.556;2023-05-15T09:15:44;99060.47;;;18.42;72.45
11912;BME280;6016;41.928;25.556;2023-05-15T09:18:12;98986.16;;;18.24;71.14
11912;BME280;6016;41.928;25.556;2023-05-15T09:20:40;99017.50;;;18.44;71.58
11912;BME280;6016;41.928;25.556;2023-05-15T09:23:22;99108.06;;;19.10;70.98
11912;BME280;6016;41.928;25.556;2023-05-15T09:25:52;99113.25;;;19.12;71.29
11912;BME280;6016;41.928;25.556;2023-05-15T09:28:27;99113.69;;;19.16;70.27
11912;BME280;6016;41.928;25.556;2023-05-15T09:30:59;99044.09;;;18.80;70.61
11912;BME280;6016;41.928;25.556;2023-05-15T09:33:27;99124.69;;;19.34;70.51
11912;BME280;6016;41.928;25.556;2023-05-15T09:35:54;99109.53;;;19.42;70.57
11912;BME280;6016;41.928;25.556;2023-05-15T09:38:21;98810.94;;;17.94;69.78
11912;BME280;6016;41.928;25.556;2023-05-15T09:40:48;99094.47;;;19.89;69.44
11912;BME280;6016;41.928;25.556;2023-05-15T09:43:17;98972.31;;;19.06;66.67
11912;BME280;6016;41.928;25.556;2023-05-15T09:45:46;99112.19;;;19.90;68.13
11912;BME280;6016;41.928;25.556;2023-05-15T09:48:13;99017.66;;;19.28;67.20
11912;BME280;6016;41.928;25.556;2023-05-15T09:50:40;99099.19;;;19.80;66.79
11912;BME280;6016;41.928;25.556;2023-05-15T09:53:10;99085.81;;;19.80;68.82
11912;BME280;6016;41.928;25.556;2023-05-15T09:55:38;99082.09;;;19.81;68.27
11912;BME280;6016;41.928;25.556;2023-05-15T09:58:08;99047.03;;;19.63;66.93
11912;BME280;6016;41.928;25.556;2023-05-15T10:00:40;99016.75;;;19.56;67.04
11912;BME280;6016;41.928;25.556;2023-05-15T10:03:08;99089.56;;;19.93;67.89
11912;BME280;6016;41.928;25.556;2023-05-15T10:05:35;99085.09;;;20.00;67.11
11912;BME280;6016;41.928;25.556;2023-05-15T10:08:03;99046.63;;;19.66;66.51
11912;BME280;6016;41.928;25.556;2023-05-15T10:10:30;98989.75;;;19.37;66.42
11912;BME280;6016;41.928;25.556;2023-05-15T10:12:59;99071.78;;;19.78;67.86
11912;BME280;6016;41.928;25.556;2023-05-15T10:15:29;98850.44;;;18.34;67.73
11912;BME280;6016;41.928;25.556;2023-05-15T10:17:58;99032.50;;;19.86;67.75
11912;BME280;6016;41.928;25.556;2023-05-15T10:20:25;99067.41;;;20.26;66.86
11912;BME280;6016;41.928;25.556;2023-05-15T10:22:54;98870.34;;;19.16;65.69
11912;BME280;6016;41.928;25.556;2023-05-15T10:25:26;99050.91;;;20.22;66.22
11912;BME280;6016;41.928;25.556;2023-05-15T10:27:57;98983.97;;;20.09;65.79
11912;BME280;6016;41.928;25.556;2023-05-15T10:30:25;98946.22;;;19.97;65.66
11912;BME280;6016;41.928;25.556;2023-05-15T10:32:54;99000.44;;;20.33;65.60
11912;BME280;6016;41.928;25.556;2023-05-15T10:35:23;99024.75;;;20.65;63.62
11912;BME280;6016;41.928;25.556;2023-05-15T10:37:52;99041.84;;;20.64;62.78
11912;BME280;6016;41.928;25.556;2023-05-15T10:40:19;99003.72;;;20.55;64.99
11912;BME280;6016;41.928;25.556;2023-05-15T10:42:47;99016.50;;;20.66;65.02
11912;BME280;6016;41.928;25.556;2023-05-15T10:45:13;99019.38;;;20.85;65.33
11912;BME280;6016;41.928;25.556;2023-05-15T10:47:42;98982.72;;;20.59;65.63
11912;BME280;6016;41.928;25.556;2023-05-15T10:50:11;99000.84;;;20.57;64.73
11912;BME280;6016;41.928;25.556;2023-05-15T10:52:40;99035.47;;;20.92;65.04
11912;BME280;6016;41.928;25.556;2023-05-15T10:55:12;98990.72;;;20.86;64.51
11912;BME280;6016;41.928;25.556;2023-05-15T10:57:39;98952.34;;;20.72;63.20
11912;BME280;6016;41.928;25.556;2023-05-15T11:00:23;99021.31;;;21.44;63.70
11912;BME280;6016;41.928;25.556;2023-05-15T11:02:51;99006.38;;;21.55;61.65
11912;BME280;6016;41.928;25.556;2023-05-15T11:05:21;98941.34;;;21.07;60.71
11912;BME280;6016;41.928;25.556;2023-05-15T11:10:49;98996.88;;;21.06;63.15
11912;BME280;6016;41.928;25.556;2023-05-15T11:13:15;99018.31;;;21.13;61.59
11912;BME280;6016;41.928;25.556;2023-05-15T11:15:43;99016.22;;;21.15;61.53
11912;BME280;6016;41.928;25.556;2023-05-15T11:18:11;98954.25;;;20.58;63.46
11912;BME280;6016;41.928;25.556;2023-05-15T11:20:39;98885.28;;;20.13;63.48
11912;BME280;6016;41.928;25.556;2023-05-15T11:23:07;99028.66;;;20.96;62.66
11912;BME280;6016;41.928;25.556;2023-05-15T11:25:35;99001.66;;;20.71;62.81
11912;BME280;6016;41.928;25.556;2023-05-15T11:28:03;99026.38;;;20.73;63.90
11912;BME280;6016;41.928;25.556;2023-05-15T11:30:36;99025.16;;;20.89;64.92
11912;BME280;6016;41.928;25.556;2023-05-15T11:33:04;98987.22;;;20.65;65.17
11912;BME280;6016;41.928;25.556;2023-05-15T11:35:36;98979.19;;;20.58;65.81
11912;BME280;6016;41.928;25.556;2023-05-15T11:38:08;99003.31;;;20.58;64.89
11912;BME280;6016;41.928;25.556;2023-05-15T11:40:43;99007.88;;;20.58;65.69
11912;BME280;6016;41.928;25.556;2023-05-15T11:43:20;98652.19;;;18.32;64.61
11912;BME280;6016;41.928;25.556;2023-05-15T11:45:50;99015.06;;;20.57;65.69
11912;BME280;6016;41.928;25.556;2023-05-15T11:48:21;99029.72;;;20.68;66.04
11912;BME280;6016;41.928;25.556;2023-05-15T11:50:48;99035.06;;;20.75;66.32
11912;BME280;6016;41.928;25.556;2023-05-15T11:53:18;99000.00;;;20.63;65.30
11912;BME280;6016;41.928;25.556;2023-05-15T11:55:45;98966.22;;;20.48;66.88
11912;BME280;6016;41.928;25.556;2023-05-15T11:58:14;99000.00;;;20.76;64.75
11912;BME280;6016;41.928;25.556;2023-05-15T12:00:43;99013.19;;;20.91;64.52
11912;BME280;6016;41.928;25.556;2023-05-15T12:03:13;99028.03;;;20.80;64.14
11912;BME280;6016;41.928;25.556;2023-05-15T12:05:41;98940.28;;;20.35;65.75
11912;BME280;6016;41.928;25.556;2023-05-15T12:08:09;99008.06;;;20.49;63.70
11912;BME280;6016;41.928;25.556;2023-05-15T12:10:39;99018.75;;;20.90;64.02
11912;BME280;6016;41.928;25.556;2023-05-15T12:13:07;99014.66;;;20.94;63.81
11912;BME280;6016;41.928;25.556;2023-05-15T12:15:36;99017.94;;;20.96;64.55
11912;BME280;6016;41.928;25.556;2023-05-15T12:18:08;99015.03;;;20.91;62.97
11912;BME280;6016;41.928;25.556;2023-05-15T12:20:37;99008.00;;;20.97;63.53
11912;BME280;6016;41.928;25.556;2023-05-15T12:23:06;99000.59;;;21.05;64.21
11912;BME280;6016;41.928;25.556;2023-05-15T12:25:34;98942.28;;;20.67;64.04
11912;BME280;6016;41.928;25.556;2023-05-15T12:28:03;98992.16;;;20.95;62.86
11912;BME280;6016;41.928;25.556;2023-05-15T12:30:30;99008.25;;;20.75;61.56
11912;BME280;6016;41.928;25.556;2023-05-15T12:33:00;99010.50;;;20.98;61.49
11912;BME280;6016;41.928;25.556;2023-05-15T12:35:29;98996.91;;;20.93;62.59
11912;BME280;6016;41.928;25.556;2023-05-15T12:37:57;98926.84;;;20.62;64.15
11912;BME280;6016;41.928;25.556;2023-05-15T12:40:23;98994.97;;;21.14;63.21
11912;BME280;6016;41.928;25.556;2023-05-15T12:42:52;98942.66;;;20.91;63.83
11912;BME280;6016;41.928;25.556;2023-05-15T12:45:21;98869.13;;;20.53;62.03
11912;BME280;6016;41.928;25.556;2023-05-15T12:47:49;98930.81;;;21.19;62.28
11912;BME280;6016;41.928;25.556;2023-05-15T12:50:17;98974.81;;;21.50;61.13
11912;BME280;6016;41.928;25.556;2023-05-15T12:52:52;98980.56;;;21.54;61.42
11912;BME280;6016;41.928;25.556;2023-05-15T12:55:24;98977.69;;;21.55;61.36
11912;BME280;6016;41.928;25.556;2023-05-15T12:57:52;98964.06;;;21.50;63.23
11912;BME280;6016;41.928;25.556;2023-05-15T13:00:20;98865.28;;;20.94;62.00
11912;BME280;6016;41.928;25.556;2023-05-15T13:02:48;98974.59;;;21.52;60.52
11912;BME280;6016;41.928;25.556;2023-05-15T13:05:16;98981.84;;;21.44;61.43
11912;BME280;6016;41.928;25.556;2023-05-15T13:07:43;98839.03;;;20.58;61.80
11912;BME280;6016;41.928;25.556;2023-05-15T13:10:12;98966.34;;;21.46;61.47
11912;BME280;6016;41.928;25.556;2023-05-15T13:12:41;98971.53;;;21.48;62.24
11912;BME280;6016;41.928;25.556;2023-05-15T13:15:22;98921.78;;;21.06;62.41